sensor_id;sensor_type;location;lat;lon;timestamp;P1;durP1;ratioP1;P2;durP2;ratioP2
51296;SDS011;37380;45.186;9.792;2023-12-29T00:02:15;37.10;;;27.75;;
51296;SDS011;37380;45.186;9.792;2023-12-29T00:04:42;33.17;;;27.38;;
51296;SDS011;37380;45.186;9.792;2023-12-29T00:07:09;39.35;;;29.63;;
51296;SDS011;37380;45.186;9.792;2023-12-29T00:09:36;38.50;;;29.13;;
51296;SDS011;37380;45.186;9.792;2023-12-29T00:12:08;34.45;;;29.90;;
51296;SDS011;37380;45.186;9.792;2023-12-29T00:14:38;41.05;;;28.95;;
51296;SDS011;37380;45.186;9.792;2023-12-29T00:17:07;36.58;;;29.63;;
51296;SDS011;37380;45.186;9.792;2023-12-29T00:19:34;36.00;;;31.88;;
51296;SDS011;37380;45.186;9.792;2023-12-29T00:22:01;35.45;;;28.55;;
51296;SDS011;37380;45.186;9.792;2023-12-29T00:24:30;35.95;;;28.83;;
51296;SDS011;37380;45.186;9.792;2023-12-29T00:27:00;38.67;;;29.60;;
51296;SDS011;37380;45.186;9.792;2023-12-29T00:29:28;38.72;;;29.52;;
51296;SDS011;37380;45.186;9.792;2023-12-29T00:32:00;40.63;;;31.80;;
51296;SDS011;37380;45.186;9.792;2023-12-29T00:34:30;36.72;;;29.40;;
51296;SDS011;37380;45.186;9.792;2023-12-29T00:36:58;38.33;;;30.33;;
51296;SDS011;37380;45.186;9.792;2023-12-29T00:39:25;34.00;;;28.63;;
51296;SDS011;37380;45.186;9.792;2023-12-29T00:41:56;33.10;;;28.85;;
51296;SDS011;37380;45.186;9.792;2023-12-29T00:44:24;41.13;;;28.92;;
51296;SDS011;37380;45.186;9.792;2023-12-29T00:46:50;34.97;;;30.10;;
51296;SDS011;37380;45.186;9.792;2023-12-29T00:49:17;46.03;;;30.00;;
51296;SDS011;37380;45.186;9.792;2023-12-29T00:51:47;36.22;;;28.35;;
51296;SDS011;37380;45.186;9.792;2023-12-29T00:54:15;40.40;;;28.48;;
51296;SDS011;37380;45.186;9.792;2023-12-29T00:56:48;38.33;;;30.05;;
51296;SDS011;37380;45.186;9.792;2023-12-29T00:59:18;35.05;;;31.25;;
51296;SDS011;37380;45.186;9.792;2023-12-29T01:01:48;39.75;;;29.95;;
51296;SDS011;37380;45.186;9.792;2023-12-29T01:04:16;36.17;;;29.20;;
51296;SDS011;37380;45.186;9.792;2023-12-29T01:06:43;33.22;;;28.70;;
51296;SDS011;37380;45.186;9.792;2023-12-29T01:09:11;37.80;;;31.60;;
51296;SDS011;37380;45.186;9.792;2023-12-29T01:11:39;36.80;;;32.85;;
51296;SDS011;37380;45.186;9.792;2023-12-29T01:14:06;39.75;;;31.27;;
51296;SDS011;37380;45.186;9.792;2023-12-29T01:16:34;46.95;;;32.47;;
51296;SDS011;37380;45.186;9.792;2023-12-29T01:19:01;39.95;;;35.05;;
51296;SDS011;37380;45.186;9.792;2023-12-29T01:21:28;41.30;;;32.08;;
51296;SDS011;37380;45.186;9.792;2023-12-29T01:23:55;36.83;;;32.30;;
51296;SDS011;37380;45.186;9.792;2023-12-29T01:26:22;41.42;;;32.47;;
51296;SDS011;37380;45.186;9.792;2023-12-29T01:28:49;45.67;;;35.78;;
51296;SDS011;37380;45.186;9.792;2023-12-29T01:31:16;36.45;;;31.27;;
51296;SDS011;37380;45.186;9.792;2023-12-29T01:33:43;37.28;;;30.60;;
51296;SDS011;37380;45.186;9.792;2023-12-29T01:36:16;39.45;;;34.00;;
51296;SDS011;37380;45.186;9.792;2023-12-29T01:38:46;40.40;;;32.10;;
51296;SDS011;37380;45.186;9.792;2023-12-29T01:41:14;43.13;;;32.38;;
51296;SDS011;37380;45.186;9.792;2023-12-29T01:46:28;38.35;;;30.83;;
51296;SDS011;37380;45.186;9.792;2023-12-29T01:48:56;39.30;;;33.15;;
51296;SDS011;37380;45.186;9.792;2023-12-29T01:51:25;37.03;;;32.90;;
51296;SDS011;37380;45.186;9.792;2023-12-29T01:53:54;37.50;;;33.17;;
51296;SDS011;37380;45.186;9.792;2023-12-29T01:56:24;37.13;;;31.63;;
51296;SDS011;37380;45.186;9.792;2023-12-29T01:58:52;45.78;;;36.38;;
51296;SDS011;37380;45.186;9.792;2023-12-29T02:01:31;40.45;;;33.47;;
51296;SDS011;37380;45.186;9.792;2023-12-29T02:03:58;37.97;;;33.10;;
51296;SDS011;37380;45.186;9.792;2023-12-29T02:06:25;44.35;;;35.15;;
51296;SDS011;37380;45.186;9.792;2023-12-29T02:08:53;43.45;;;36.70;;
51296;SDS011;37380;45.186;9.792;2023-12-29T02:11:21;38.00;;;33.28;;
51296;SDS011;37380;45.186;9.792;2023-12-29T02:13:48;40.13;;;35.75;;
51296;SDS011;37380;45.186;9.792;2023-12-29T02:16:38;44.17;;;37.47;;
51296;SDS011;37380;45.186;9.792;2023-12-29T02:21:52;39.65;;;32.92;;
51296;SDS011;37380;45.186;9.792;2023-12-29T02:24:19;39.25;;;33.17;;
51296;SDS011;37380;45.186;9.792;2023-12-29T02:26:47;43.85;;;36.03;;
51296;SDS011;37380;45.186;9.792;2023-12-29T02:29:20;41.75;;;34.38;;
51296;SDS011;37380;45.186;9.792;2023-12-29T02:31:50;51.38;;;37.13;;
51296;SDS011;37380;45.186;9.792;2023-12-29T02:34:21;45.15;;;38.95;;
51296;SDS011;37380;45.186;9.792;2023-12-29T02:36:49;41.40;;;34.78;;
51296;SDS011;37380;45.186;9.792;2023-12-29T02:39:18;46.53;;;36.22;;
51296;SDS011;37380;45.186;9.792;2023-12-29T02:41:45;44.17;;;33.33;;
51296;SDS011;37380;45.186;9.792;2023-12-29T02:44:13;43.75;;;35.22;;
51296;SDS011;37380;45.186;9.792;2023-12-29T02:46:40;41.60;;;37.10;;
51296;SDS011;37380;45.186;9.792;2023-12-29T02:49:07;51.90;;;37.80;;
51296;SDS011;37380;45.186;9.792;2023-12-29T02:51:38;48.90;;;37.72;;
51296;SDS011;37380;45.186;9.792;2023-12-29T02:54:07;46.50;;;36.38;;
51296;SDS011;37380;45.186;9.792;2023-12-29T02:56:34;46.70;;;38.90;;
51296;SDS011;37380;45.186;9.792;2023-12-29T02:59:02;47.97;;;39.20;;
51296;SDS011;37380;45.186;9.792;2023-12-29T03:01:29;46.17;;;38.20;;
51296;SDS011;37380;45.186;9.792;2023-12-29T03:03:56;62.60;;;39.45;;
51296;SDS011;37380;45.186;9.792;2023-12-29T03:06:23;51.05;;;37.03;;
51296;SDS011;37380;45.186;9.792;2023-12-29T03:08:51;51.08;;;38.28;;
51296;SDS011;37380;45.186;9.792;2023-12-29T03:11:18;46.97;;;36.28;;
51296;SDS011;37380;45.186;9.792;2023-12-29T03:13:45;51.65;;;38.72;;
51296;SDS011;37380;45.186;9.792;2023-12-29T03:16:12;45.50;;;37.08;;
51296;SDS011;37380;45.186;9.792;2023-12-29T03:18:39;49.83;;;38.38;;
51296;SDS011;37380;45.186;9.792;2023-12-29T03:21:09;41.97;;;31.77;;
51296;SDS011;37380;45.186;9.792;2023-12-29T03:23:36;46.83;;;31.75;;
51296;SDS011;37380;45.186;9.792;2023-12-29T03:26:03;44.92;;;31.65;;
51296;SDS011;37380;45.186;9.792;2023-12-29T03:28:30;41.53;;;33.42;;
51296;SDS011;37380;45.186;9.792;2023-12-29T03:30:57;40.40;;;34.40;;
51296;SDS011;37380;45.186;9.792;2023-12-29T03:33:24;35.83;;;31.38;;
51296;SDS011;37380;45.186;9.792;2023-12-29T03:35:52;41.80;;;30.63;;
51296;SDS011;37380;45.186;9.792;2023-12-29T03:38:19;37.92;;;33.42;;
51296;SDS011;37380;45.186;9.792;2023-12-29T03:40:46;44.40;;;31.23;;
51296;SDS011;37380;45.186;9.792;2023-12-29T03:43:13;42.40;;;34.00;;
51296;SDS011;37380;45.186;9.792;2023-12-29T03:45:40;37.65;;;31.40;;
51296;SDS011;37380;45.186;9.792;2023-12-29T03:48:07;38.28;;;29.63;;
51296;SDS011;37380;45.186;9.792;2023-12-29T03:50:35;45.75;;;32.17;;
51296;SDS011;37380;45.186;9.792;2023-12-29T03:53:02;39.78;;;30.52;;
51296;SDS011;37380;45.186;9.792;2023-12-29T03:55:30;35.40;;;29.10;;
51296;SDS011;37380;45.186;9.792;2023-12-29T03:57:57;34.72;;;28.95;;
51296;SDS011;37380;45.186;9.792;2023-12-29T04:00:25;39.92;;;28.77;;
51296;SDS011;37380;45.186;9.792;2023-12-29T04:02:52;33.90;;;27.23;;
51296;SDS011;37380;45.186;9.792;2023-12-29T04:05:19;37.33;;;28.83;;
51296;SDS011;37380;45.186;9.792;2023-12-29T04:07:46;40.38;;;28.75;;
51296;SDS011;37380;45.186;9.792;2023-12-29T04:10:13;33.78;;;27.48;;
51296;SDS011;37380;45.186;9.792;2023-12-29T04:12:40;39.72;;;29.58;;
51296;SDS011;37380;45.186;9.792;2023-12-29T04:15:07;35.55;;;29.92;;
51296;SDS011;37380;45.186;9.792;2023-12-29T04:17:35;35.47;;;30.45;;
51296;SDS011;37380;45.186;9.792;2023-12-29T04:20:02;38.78;;;30.33;;
51296;SDS011;37380;45.186;9.792;2023-12-29T04:22:30;43.47;;;30.67;;
51296;SDS011;37380;45.186;9.792;2023-12-29T04:24:57;37.03;;;30.70;;
51296;SDS011;37380;45.186;9.792;2023-12-29T04:27:23;38.45;;;30.10;;
51296;SDS011;37380;45.186;9.792;2023-12-29T04:29:50;44.90;;;32.30;;
51296;SDS011;37380;45.186;9.792;2023-12-29T04:32:17;39.28;;;32.30;;
51296;SDS011;37380;45.186;9.792;2023-12-29T04:34:44;46.00;;;33.22;;
51296;SDS011;37380;45.186;9.792;2023-12-29T04:37:11;55.03;;;33.50;;
51296;SDS011;37380;45.186;9.792;2023-12-29T04:39:39;42.97;;;33.17;;
51296;SDS011;37380;45.186;9.792;2023-12-29T04:42:06;48.65;;;36.25;;
51296;SDS011;37380;45.186;9.792;2023-12-29T04:44:34;47.75;;;34.80;;
51296;SDS011;37380;45.186;9.792;2023-12-29T04:47:01;45.72;;;34.58;;
51296;SDS011;37380;45.186;9.792;2023-12-29T04:49:28;45.78;;;31.90;;
51296;SDS011;37380;45.186;9.792;2023-12-29T04:51:56;42.20;;;34.03;;
51296;SDS011;37380;45.186;9.792;2023-12-29T04:54:23;43.75;;;34.15;;
51296;SDS011;37380;45.186;9.792;2023-12-29T04:56:51;40.13;;;33.90;;
51296;SDS011;37380;45.186;9.792;2023-12-29T04:59:18;43.70;;;34.95;;
51296;SDS011;37380;45.186;9.792;2023-12-29T05:01:44;45.10;;;34.05;;
51296;SDS011;37380;45.186;9.792;2023-12-29T05:04:11;50.28;;;33.60;;
51296;SDS011;37380;45.186;9.792;2023-12-29T05:06:39;43.65;;;33.22;;
51296;SDS011;37380;45.186;9.792;2023-12-29T05:09:06;42.92;;;34.28;;
51296;SDS011;37380;45.186;9.792;2023-12-29T05:11:33;44.78;;;35.25;;
51296;SDS011;37380;45.186;9.792;2023-12-29T05:14:00;50.30;;;34.30;;
51296;SDS011;37380;45.186;9.792;2023-12-29T05:16:27;46.53;;;34.08;;
51296;SDS011;37380;45.186;9.792;2023-12-29T05:18:53;45.70;;;35.97;;
51296;SDS011;37380;45.186;9.792;2023-12-29T05:21:21;50.22;;;38.15;;
51296;SDS011;37380;45.186;9.792;2023-12-29T05:23:48;52.17;;;32.67;;
51296;SDS011;37380;45.186;9.792;2023-12-29T05:26:15;45.78;;;33.63;;
51296;SDS011;37380;45.186;9.792;2023-12-29T05:28:42;45.85;;;36.45;;
51296;SDS011;37380;45.186;9.792;2023-12-29T05:31:09;57.75;;;37.05;;
51296;SDS011;37380;45.186;9.792;2023-12-29T05:33:37;47.88;;;34.67;;
51296;SDS011;37380;45.186;9.792;2023-12-29T05:36:07;49.70;;;36.55;;
51296;SDS011;37380;45.186;9.792;2023-12-29T05:38:39;42.05;;;35.20;;
51296;SDS011;37380;45.186;9.792;2023-12-29T05:41:07;49.70;;;37.60;;
51296;SDS011;37380;45.186;9.792;2023-12-29T05:43:34;61.08;;;40.72;;
51296;SDS011;37380;45.186;9.792;2023-12-29T05:46:02;53.22;;;37.15;;
51296;SDS011;37380;45.186;9.792;2023-12-29T05:48:29;47.35;;;37.28;;
51296;SDS011;37380;45.186;9.792;2023-12-29T05:50:56;50.35;;;38.90;;
51296;SDS011;37380;45.186;9.792;2023-12-29T05:53:23;45.63;;;35.13;;
51296;SDS011;37380;45.186;9.792;2023-12-29T05:55:50;49.65;;;36.78;;
51296;SDS011;37380;45.186;9.792;2023-12-29T05:58:17;45.92;;;38.58;;
51296;SDS011;37380;45.186;9.792;2023-12-29T06:00:44;56.42;;;38.10;;
51296;SDS011;37380;45.186;9.792;2023-12-29T06:03:11;44.58;;;36.28;;
51296;SDS011;37380;45.186;9.792;2023-12-29T06:05:38;47.08;;;40.55;;
51296;SDS011;37380;45.186;9.792;2023-12-29T06:08:06;44.55;;;37.25;;
51296;SDS011;37380;45.186;9.792;2023-12-29T06:10:33;43.80;;;37.88;;
51296;SDS011;37380;45.186;9.792;2023-12-29T06:13:02;53.97;;;40.05;;
51296;SDS011;37380;45.186;9.792;2023-12-29T06:15:29;43.25;;;36.20;;
51296;SDS011;37380;45.186;9.792;2023-12-29T06:17:57;43.83;;;36.78;;
51296;SDS011;37380;45.186;9.792;2023-12-29T06:20:25;51.03;;;38.75;;
51296;SDS011;37380;45.186;9.792;2023-12-29T06:22:52;46.80;;;36.08;;
51296;SDS011;37380;45.186;9.792;2023-12-29T06:25:19;47.13;;;37.13;;
51296;SDS011;37380;45.186;9.792;2023-12-29T06:27:46;57.70;;;35.28;;
51296;SDS011;37380;45.186;9.792;2023-12-29T06:30:13;47.95;;;37.85;;
51296;SDS011;37380;45.186;9.792;2023-12-29T06:32:41;45.17;;;37.42;;
51296;SDS011;37380;45.186;9.792;2023-12-29T06:35:09;46.25;;;35.65;;
51296;SDS011;37380;45.186;9.792;2023-12-29T06:37:38;42.83;;;34.05;;
51296;SDS011;37380;45.186;9.792;2023-12-29T06:40:06;44.22;;;34.40;;
51296;SDS011;37380;45.186;9.792;2023-12-29T06:42:34;46.25;;;37.03;;
51296;SDS011;37380;45.186;9.792;2023-12-29T06:45:02;46.03;;;35.75;;
51296;SDS011;37380;45.186;9.792;2023-12-29T06:47:30;43.60;;;34.60;;
51296;SDS011;37380;45.186;9.792;2023-12-29T06:49:58;46.17;;;32.67;;
51296;SDS011;37380;45.186;9.792;2023-12-29T06:52:25;51.38;;;33.63;;
51296;SDS011;37380;45.186;9.792;2023-12-29T06:54:53;41.40;;;34.13;;
51296;SDS011;37380;45.186;9.792;2023-12-29T06:57:20;46.72;;;32.70;;
51296;SDS011;37380;45.186;9.792;2023-12-29T06:59:47;47.90;;;36.13;;
51296;SDS011;37380;45.186;9.792;2023-12-29T07:02:14;37.17;;;32.25;;
51296;SDS011;37380;45.186;9.792;2023-12-29T07:04:42;47.90;;;35.42;;
51296;SDS011;37380;45.186;9.792;2023-12-29T07:07:09;41.60;;;33.47;;
51296;SDS011;37380;45.186;9.792;2023-12-29T07:09:40;46.38;;;35.40;;
51296;SDS011;37380;45.186;9.792;2023-12-29T07:12:07;44.35;;;30.98;;
51296;SDS011;37380;45.186;9.792;2023-12-29T07:14:34;41.15;;;31.80;;
51296;SDS011;37380;45.186;9.792;2023-12-29T07:17:02;40.47;;;32.85;;
51296;SDS011;37380;45.186;9.792;2023-12-29T07:19:30;39.67;;;31.88;;
51296;SDS011;37380;45.186;9.792;2023-12-29T07:22:04;35.13;;;29.77;;
51296;SDS011;37380;45.186;9.792;2023-12-29T07:24:33;41.55;;;30.35;;
51296;SDS011;37380;45.186;9.792;2023-12-29T07:27:02;43.50;;;32.42;;
51296;SDS011;37380;45.186;9.792;2023-12-29T07:29:29;39.40;;;32.05;;
51296;SDS011;37380;45.186;9.792;2023-12-29T07:31:57;46.13;;;33.05;;
51296;SDS011;37380;45.186;9.792;2023-12-29T07:34:23;37.05;;;32.80;;
51296;SDS011;37380;45.186;9.792;2023-12-29T07:36:51;41.15;;;32.30;;
51296;SDS011;37380;45.186;9.792;2023-12-29T07:39:18;39.85;;;33.50;;
51296;SDS011;37380;45.186;9.792;2023-12-29T07:41:45;42.83;;;32.38;;
51296;SDS011;37380;45.186;9.792;2023-12-29T07:44:14;37.47;;;31.30;;
51296;SDS011;37380;45.186;9.792;2023-12-29T07:46:42;36.03;;;30.90;;
51296;SDS011;37380;45.186;9.792;2023-12-29T07:49:09;37.45;;;30.92;;
51296;SDS011;37380;45.186;9.792;2023-12-29T07:51:40;43.30;;;33.80;;
51296;SDS011;37380;45.186;9.792;2023-12-29T07:54:09;35.80;;;30.55;;
51296;SDS011;37380;45.186;9.792;2023-12-29T07:56:36;40.97;;;33.17;;
51296;SDS011;37380;45.186;9.792;2023-12-29T07:59:04;31.65;;;27.83;;
51296;SDS011;37380;45.186;9.792;2023-12-29T08:01:31;38.25;;;33.00;;
51296;SDS011;37380;45.186;9.792;2023-12-29T08:03:58;35.88;;;30.13;;
51296;SDS011;37380;45.186;9.792;2023-12-29T08:06:25;46.63;;;29.58;;
51296;SDS011;37380;45.186;9.792;2023-12-29T08:08:54;37.42;;;30.40;;
51296;SDS011;37380;45.186;9.792;2023-12-29T08:11:21;38.30;;;32.55;;
51296;SDS011;37380;45.186;9.792;2023-12-29T08:13:48;40.60;;;31.08;;
51296;SDS011;37380;45.186;9.792;2023-12-29T08:16:16;37.50;;;31.33;;
51296;SDS011;37380;45.186;9.792;2023-12-29T08:18:46;42.65;;;33.30;;
51296;SDS011;37380;45.186;9.792;2023-12-29T08:21:17;43.15;;;33.83;;
51296;SDS011;37380;45.186;9.792;2023-12-29T08:23:47;39.17;;;32.42;;
51296;SDS011;37380;45.186;9.792;2023-12-29T08:26:15;37.45;;;30.27;;
51296;SDS011;37380;45.186;9.792;2023-12-29T08:28:42;39.92;;;33.95;;
51296;SDS011;37380;45.186;9.792;2023-12-29T08:31:09;39.63;;;31.95;;
51296;SDS011;37380;45.186;9.792;2023-12-29T08:33:36;43.10;;;34.00;;
51296;SDS011;37380;45.186;9.792;2023-12-29T08:36:04;37.90;;;32.58;;
51296;SDS011;37380;45.186;9.792;2023-12-29T08:38:31;39.10;;;32.45;;
51296;SDS011;37380;45.186;9.792;2023-12-29T08:40:59;40.50;;;32.33;;
51296;SDS011;37380;45.186;9.792;2023-12-29T08:43:26;42.85;;;32.13;;
51296;SDS011;37380;45.186;9.792;2023-12-29T08:45:53;49.88;;;37.35;;
51296;SDS011;37380;45.186;9.792;2023-12-29T08:48:21;44.20;;;33.78;;
51296;SDS011;37380;45.186;9.792;2023-12-29T08:50:49;37.58;;;32.03;;
51296;SDS011;37380;45.186;9.792;2023-12-29T08:53:16;45.25;;;35.42;;
51296;SDS011;37380;45.186;9.792;2023-12-29T08:55:43;42.65;;;35.42;;
51296;SDS011;37380;45.186;9.792;2023-12-29T08:58:11;50.05;;;35.70;;
51296;SDS011;37380;45.186;9.792;2023-12-29T09:00:38;58.75;;;39.65;;
51296;SDS011;37380;45.186;9.792;2023-12-29T09:03:07;44.60;;;35.30;;
51296;SDS011;37380;45.186;9.792;2023-12-29T09:05:34;45.38;;;34.30;;
51296;SDS011;37380;45.186;9.792;2023-12-29T09:08:01;43.53;;;34.47;;
51296;SDS011;37380;45.186;9.792;2023-12-29T09:10:29;49.17;;;36.58;;
51296;SDS011;37380;45.186;9.792;2023-12-29T09:12:56;44.78;;;36.60;;
51296;SDS011;37380;45.186;9.792;2023-12-29T09:15:23;45.80;;;35.70;;
51296;SDS011;37380;45.186;9.792;2023-12-29T09:17:50;42.10;;;36.78;;
51296;SDS011;37380;45.186;9.792;2023-12-29T09:20:17;50.85;;;39.20;;
51296;SDS011;37380;45.186;9.792;2023-12-29T09:22:44;47.53;;;38.10;;
51296;SDS011;37380;45.186;9.792;2023-12-29T09:25:11;43.65;;;36.65;;
51296;SDS011;37380;45.186;9.792;2023-12-29T09:27:38;45.55;;;37.33;;
51296;SDS011;37380;45.186;9.792;2023-12-29T09:30:05;43.70;;;35.17;;
51296;SDS011;37380;45.186;9.792;2023-12-29T09:32:33;44.28;;;36.13;;
51296;SDS011;37380;45.186;9.792;2023-12-29T09:35:00;45.47;;;35.97;;
51296;SDS011;37380;45.186;9.792;2023-12-29T09:37:27;41.60;;;36.80;;
51296;SDS011;37380;45.186;9.792;2023-12-29T09:39:55;49.83;;;38.75;;
51296;SDS011;37380;45.186;9.792;2023-12-29T09:42:22;45.60;;;37.25;;
51296;SDS011;37380;45.186;9.792;2023-12-29T09:44:51;54.38;;;41.72;;
51296;SDS011;37380;45.186;9.792;2023-12-29T09:47:23;48.78;;;36.00;;
51296;SDS011;37380;45.186;9.792;2023-12-29T09:49:51;49.13;;;37.85;;
51296;SDS011;37380;45.186;9.792;2023-12-29T09:52:22;56.03;;;39.85;;
51296;SDS011;37380;45.186;9.792;2023-12-29T09:54:50;49.88;;;39.55;;
51296;SDS011;37380;45.186;9.792;2023-12-29T09:57:18;51.08;;;40.80;;
51296;SDS011;37380;45.186;9.792;2023-12-29T09:59:46;59.38;;;40.53;;
51296;SDS011;37380;45.186;9.792;2023-12-29T10:02:19;49.17;;;40.00;;
51296;SDS011;37380;45.186;9.792;2023-12-29T10:04:49;51.70;;;40.03;;
51296;SDS011;37380;45.186;9.792;2023-12-29T10:07:18;56.22;;;39.33;;
51296;SDS011;37380;45.186;9.792;2023-12-29T10:12:19;47.40;;;37.22;;
51296;SDS011;37380;45.186;9.792;2023-12-29T10:15:10;50.28;;;42.35;;
51296;SDS011;37380;45.186;9.792;2023-12-29T10:17:51;47.57;;;37.93;;
51296;SDS011;37380;45.186;9.792;2023-12-29T10:23:40;50.60;;;39.22;;
51296;SDS011;37380;45.186;9.792;2023-12-29T10:26:11;54.25;;;41.95;;
51296;SDS011;37380;45.186;9.792;2023-12-29T10:28:38;52.10;;;40.97;;
51296;SDS011;37380;45.186;9.792;2023-12-29T10:31:05;46.72;;;41.67;;
51296;SDS011;37380;45.186;9.792;2023-12-29T10:33:33;55.13;;;40.72;;
51296;SDS011;37380;45.186;9.792;2023-12-29T10:36:01;52.47;;;40.88;;
51296;SDS011;37380;45.186;9.792;2023-12-29T10:38:30;50.95;;;41.72;;
51296;SDS011;37380;45.186;9.792;2023-12-29T10:44:00;58.03;;;42.08;;
51296;SDS011;37380;45.186;9.792;2023-12-29T10:46:33;50.67;;;41.20;;
51296;SDS011;37380;45.186;9.792;2023-12-29T10:49:07;49.88;;;41.22;;
51296;SDS011;37380;45.186;9.792;2023-12-29T10:51:38;53.45;;;41.47;;
51296;SDS011;37380;45.186;9.792;2023-12-29T10:54:06;53.55;;;43.60;;
51296;SDS011;37380;45.186;9.792;2023-12-29T10:56:33;51.70;;;41.45;;
51296;SDS011;37380;45.186;9.792;2023-12-29T10:59:03;53.95;;;43.28;;
51296;SDS011;37380;45.186;9.792;2023-12-29T11:01:32;53.95;;;44.53;;
51296;SDS011;37380;45.186;9.792;2023-12-29T11:04:01;50.15;;;42.45;;
51296;SDS011;37380;45.186;9.792;2023-12-29T11:06:40;53.40;;;43.15;;
51296;SDS011;37380;45.186;9.792;2023-12-29T11:09:14;51.17;;;41.60;;
51296;SDS011;37380;45.186;9.792;2023-12-29T11:12:00;54.70;;;42.28;;
51296;SDS011;37380;45.186;9.792;2023-12-29T11:14:28;50.03;;;44.45;;
51296;SDS011;37380;45.186;9.792;2023-12-29T11:16:57;60.17;;;43.90;;
51296;SDS011;37380;45.186;9.792;2023-12-29T11:19:27;56.13;;;47.47;;
51296;SDS011;37380;45.186;9.792;2023-12-29T11:21:56;65.93;;;45.35;;
51296;SDS011;37380;45.186;9.792;2023-12-29T11:24:24;66.18;;;46.95;;
51296;SDS011;37380;45.186;9.792;2023-12-29T11:27:04;63.97;;;47.70;;
51296;SDS011;37380;45.186;9.792;2023-12-29T11:29:34;65.28;;;48.17;;
51296;SDS011;37380;45.186;9.792;2023-12-29T11:32:02;62.13;;;46.03;;
51296;SDS011;37380;45.186;9.792;2023-12-29T11:34:38;55.88;;;45.30;;
51296;SDS011;37380;45.186;9.792;2023-12-29T11:43:17;59.13;;;44.45;;
51296;SDS011;37380;45.186;9.792;2023-12-29T11:45:45;58.65;;;48.67;;
51296;SDS011;37380;45.186;9.792;2023-12-29T11:48:12;63.75;;;45.33;;
51296;SDS011;37380;45.186;9.792;2023-12-29T11:50:40;64.97;;;47.22;;
51296;SDS011;37380;45.186;9.792;2023-12-29T11:53:07;55.28;;;44.00;;
51296;SDS011;37380;45.186;9.792;2023-12-29T11:55:38;61.38;;;48.03;;
51296;SDS011;37380;45.186;9.792;2023-12-29T11:58:25;56.90;;;46.30;;
51296;SDS011;37380;45.186;9.792;2023-12-29T12:00:56;58.67;;;45.63;;
51296;SDS011;37380;45.186;9.792;2023-12-29T12:03:27;59.17;;;46.15;;
51296;SDS011;37380;45.186;9.792;2023-12-29T12:05:58;63.28;;;47.33;;
51296;SDS011;37380;45.186;9.792;2023-12-29T12:11:41;58.13;;;47.20;;
51296;SDS011;37380;45.186;9.792;2023-12-29T12:13:56;60.85;;;48.35;;
51296;SDS011;37380;45.186;9.792;2023-12-29T12:19:09;58.45;;;46.28;;
51296;SDS011;37380;45.186;9.792;2023-12-29T12:21:37;68.22;;;48.50;;
51296;SDS011;37380;45.186;9.792;2023-12-29T12:24:04;54.67;;;45.88;;
51296;SDS011;37380;45.186;9.792;2023-12-29T12:26:32;67.57;;;48.58;;
51296;SDS011;37380;45.186;9.792;2023-12-29T12:29:01;61.97;;;48.20;;
51296;SDS011;37380;45.186;9.792;2023-12-29T12:31:29;64.82;;;49.05;;
51296;SDS011;37380;45.186;9.792;2023-12-29T12:33:56;54.70;;;48.00;;
51296;SDS011;37380;45.186;9.792;2023-12-29T12:36:24;54.45;;;44.90;;
51296;SDS011;37380;45.186;9.792;2023-12-29T12:38:53;66.68;;;50.67;;
51296;SDS011;37380;45.186;9.792;2023-12-29T12:41:21;65.15;;;49.92;;
51296;SDS011;37380;45.186;9.792;2023-12-29T12:46:32;62.33;;;48.85;;
51296;SDS011;37380;45.186;9.792;2023-12-29T12:49:00;62.70;;;47.33;;
51296;SDS011;37380;45.186;9.792;2023-12-29T12:51:28;69.05;;;49.70;;
51296;SDS011;37380;45.186;9.792;2023-12-29T12:53:55;64.70;;;49.55;;
51296;SDS011;37380;45.186;9.792;2023-12-29T12:56:22;67.25;;;48.33;;
51296;SDS011;37380;45.186;9.792;2023-12-29T12:58:50;60.60;;;50.70;;
51296;SDS011;37380;45.186;9.792;2023-12-29T13:01:17;63.10;;;47.47;;
51296;SDS011;37380;45.186;9.792;2023-12-29T13:03:44;59.15;;;47.55;;
51296;SDS011;37380;45.186;9.792;2023-12-29T13:06:12;59.45;;;50.00;;
51296;SDS011;37380;45.186;9.792;2023-12-29T13:08:39;61.40;;;50.00;;
51296;SDS011;37380;45.186;9.792;2023-12-29T13:11:09;65.95;;;49.97;;
51296;SDS011;37380;45.186;9.792;2023-12-29T13:13:39;64.82;;;47.83;;
51296;SDS011;37380;45.186;9.792;2023-12-29T13:16:07;64.82;;;49.28;;
51296;SDS011;37380;45.186;9.792;2023-12-29T13:18:35;59.58;;;47.65;;
51296;SDS011;37380;45.186;9.792;2023-12-29T13:21:03;62.90;;;50.08;;
51296;SDS011;37380;45.186;9.792;2023-12-29T13:23:34;57.55;;;47.47;;
51296;SDS011;37380;45.186;9.792;2023-12-29T13:26:07;57.95;;;48.50;;
51296;SDS011;37380;45.186;9.792;2023-12-29T13:28:36;59.22;;;50.08;;
51296;SDS011;37380;45.186;9.792;2023-12-29T13:31:07;54.22;;;44.60;;
51296;SDS011;37380;45.186;9.792;2023-12-29T13:36:20;64.18;;;47.20;;
51296;SDS011;37380;45.186;9.792;2023-12-29T13:38:59;60.08;;;46.22;;
51296;SDS011;37380;45.186;9.792;2023-12-29T13:41:35;60.83;;;48.28;;
51296;SDS011;37380;45.186;9.792;2023-12-29T13:44:03;64.47;;;49.45;;
51296;SDS011;37380;45.186;9.792;2023-12-29T13:46:32;66.22;;;49.55;;
51296;SDS011;37380;45.186;9.792;2023-12-29T13:49:00;61.03;;;48.78;;
51296;SDS011;37380;45.186;9.792;2023-12-29T13:51:29;73.93;;;48.60;;
51296;SDS011;37380;45.186;9.792;2023-12-29T13:54:00;61.42;;;47.70;;
51296;SDS011;37380;45.186;9.792;2023-12-29T13:56:28;60.63;;;47.42;;
51296;SDS011;37380;45.186;9.792;2023-12-29T13:58:55;55.22;;;45.72;;
51296;SDS011;37380;45.186;9.792;2023-12-29T14:01:22;72.18;;;49.38;;
51296;SDS011;37380;45.186;9.792;2023-12-29T14:03:50;61.28;;;48.60;;
51296;SDS011;37380;45.186;9.792;2023-12-29T14:06:29;59.95;;;50.03;;
51296;SDS011;37380;45.186;9.792;2023-12-29T14:09:06;69.30;;;51.78;;
51296;SDS011;37380;45.186;9.792;2023-12-29T14:11:33;64.47;;;52.03;;
51296;SDS011;37380;45.186;9.792;2023-12-29T14:14:02;74.57;;;52.00;;
51296;SDS011;37380;45.186;9.792;2023-12-29T14:16:29;61.92;;;50.08;;
51296;SDS011;37380;45.186;9.792;2023-12-29T14:18:57;65.53;;;48.05;;
51296;SDS011;37380;45.186;9.792;2023-12-29T14:21:29;59.17;;;49.47;;
51296;SDS011;37380;45.186;9.792;2023-12-29T14:29:23;65.13;;;51.53;;
51296;SDS011;37380;45.186;9.792;2023-12-29T14:31:50;65.88;;;49.75;;
51296;SDS011;37380;45.186;9.792;2023-12-29T14:34:19;61.17;;;51.03;;
51296;SDS011;37380;45.186;9.792;2023-12-29T14:36:46;59.28;;;49.13;;
51296;SDS011;37380;45.186;9.792;2023-12-29T14:39:13;68.07;;;51.83;;
51296;SDS011;37380;45.186;9.792;2023-12-29T14:41:42;59.38;;;49.10;;
51296;SDS011;37380;45.186;9.792;2023-12-29T14:44:10;61.53;;;51.38;;
51296;SDS011;37380;45.186;9.792;2023-12-29T14:46:38;75.25;;;53.67;;
51296;SDS011;37380;45.186;9.792;2023-12-29T14:49:06;62.90;;;51.88;;
51296;SDS011;37380;45.186;9.792;2023-12-29T14:51:34;64.97;;;55.05;;
51296;SDS011;37380;45.186;9.792;2023-12-29T14:54:02;66.63;;;56.33;;
51296;SDS011;37380;45.186;9.792;2023-12-29T14:56:30;76.97;;;59.42;;
51296;SDS011;37380;45.186;9.792;2023-12-29T14:58:57;66.03;;;57.67;;
51296;SDS011;37380;45.186;9.792;2023-12-29T15:01:26;62.83;;;54.83;;
51296;SDS011;37380;45.186;9.792;2023-12-29T15:03:54;74.55;;;58.15;;
51296;SDS011;37380;45.186;9.792;2023-12-29T15:06:22;78.57;;;57.88;;